Impacts TAF Board
For situational awareness. Not to be used for flight planning purposes.
IDs:

KPDX - Portland Intl Arpt, OR, US

Issued at 2108 UTC 06 Dec 2019
Updated at 2138 UTC 06 Dec 2019
Potential Impact None Slight Moderate High
Time2053Z 06/22Z 06/23Z 07/00Z 07/01Z 07/02Z 07/03Z 07/04Z 07/05Z 07/06Z 07/07Z 07/08Z 07/09Z 07/10Z>>
Type OBS PRVL PRVL PRVL PRVL PRVL PRVL PRVL PRVL PRVL PRVL PRVL PRVL PRVL
VIS 10 >6 >6 >6 >6 >6 >6 >6 >6 >6 6 6 6 6
CIG 80 80 50 50 50 50 50 50 50 50 27 27 27 27
Cover OVC OVC OVC OVC OVC OVC OVC OVC OVC OVC OVC OVC OVC OVC
FltCat VFR VFR VFR VFR VFR VFR VFR VFR VFR VFR MVFR MVFR MVFR MVFR
WX -- VCSH -RA -RA -RA -RA -RA -RA -RA -RA -RA -RA -RA -RA
WDir 120 100 100 100 100 100 100 100 100 100 100 100 100 100
WSpd 10 7 7 7 7 7 7 7 7 7 6 6 6 6
WGst -- -- -- -- -- -- -- -- -- -- -- -- -- --
Raw TAF
KPDX 062108Z 0621/0718 10007KT P6SM VCSH SCT050 OVC080
  FM062300 10007KT P6SM -RA OVC050
  FM070700 10006KT 6SM -RA BKN027 OVC040
  FM071500 11005KT 6SM -RA BR BKN012 OVC060


Raw METAR
KPDX 062053Z 12010KT 10SM BKN080 BKN110 OVC180 09/03 A2990 RMK AO2 SLP123 T00940028 56016
KPDX 061953Z 13009KT 10SM BKN090 OVC200 09/03 A2991 RMK AO2 SLP126 T00940028
KPDX 061853Z 06003KT 10SM FEW080 BKN100 BKN210 09/03 A2993 RMK AO2 SLP133 T00890033

METAR Board
Radar Display
Forecast Discussion
For situational awareness. Not to be used for flight planning purposes.